createdAt,value
2022-08-29T00:01:23.548Z,19.32
2022-08-29T00:03:51.183Z,19.23
2022-08-29T00:06:18.740Z,19.46
2022-08-29T00:08:46.368Z,19.90
2022-08-29T00:11:15.067Z,20.04
2022-08-29T00:13:44.124Z,20.21
2022-08-29T00:16:11.964Z,20.34
2022-08-29T00:18:39.535Z,20.04
2022-08-29T00:21:07.450Z,20.14
2022-08-29T00:23:35.272Z,19.54
2022-08-29T00:26:03.079Z,19.51
2022-08-29T00:28:30.647Z,19.20
2022-08-29T00:30:59.520Z,19.32
2022-08-29T00:33:27.046Z,19.14
2022-08-29T00:35:55.315Z,19.78
2022-08-29T00:38:27.846Z,20.09
2022-08-29T00:40:58.428Z,20.45
2022-08-29T00:43:28.436Z,20.13
2022-08-29T00:46:06.765Z,20.79
2022-08-29T00:48:37.182Z,20.92
2022-08-29T00:51:08.931Z,20.90
2022-08-29T00:53:40.846Z,20.18
2022-08-29T00:56:10.772Z,20.23
2022-08-29T00:58:43.587Z,19.72
2022-08-29T01:01:13.107Z,20.10
2022-08-29T01:03:42.902Z,20.25
2022-08-29T01:06:13.438Z,19.98
2022-08-29T01:08:41.590Z,20.31
2022-08-29T01:11:38.408Z,20.11
2022-08-29T01:14:06.174Z,19.50
2022-08-29T01:16:37.149Z,18.92
2022-08-29T01:19:16.096Z,19.15
2022-08-29T01:21:51.017Z,18.83
2022-08-29T01:24:39.603Z,19.39
2022-08-29T01:27:07.979Z,19.94
2022-08-29T01:29:36.059Z,19.64
2022-08-29T01:32:04.334Z,19.18
2022-08-29T01:34:31.963Z,18.86
2022-08-29T01:37:01.917Z,18.79
2022-08-29T01:39:33.368Z,19.17
2022-08-29T01:42:06.161Z,19.52
2022-08-29T01:44:34.127Z,19.87
2022-08-29T01:47:03.255Z,20.01
2022-08-29T01:49:32.346Z,19.72
2022-08-29T01:51:59.877Z,19.64
2022-08-29T01:54:27.411Z,19.19
2022-08-29T01:56:56.258Z,18.97
2022-08-29T01:59:27.238Z,19.14
2022-08-29T02:01:59.355Z,18.90
2022-08-29T02:04:27.311Z,19.13
2022-08-29T02:06:55.588Z,18.38
2022-08-29T02:09:23.648Z,18.37
2022-08-29T02:11:52.524Z,18.39
2022-08-29T02:14:22.049Z,18.66
2022-08-29T02:16:49.563Z,18.98
2022-08-29T02:19:18.335Z,18.93
2022-08-29T02:21:45.975Z,18.67
2022-08-29T02:24:25.346Z,18.55
2022-08-29T02:26:53.392Z,18.24
2022-08-29T02:29:23.052Z,18.07
2022-08-29T02:31:50.817Z,18.52
2022-08-29T02:34:19.034Z,18.48
2022-08-29T02:36:48.996Z,18.18
2022-08-29T02:39:18.093Z,18.20
2022-08-29T02:41:45.736Z,17.82
2022-08-29T02:44:13.336Z,17.50
2022-08-29T02:46:42.309Z,16.93
2022-08-29T02:49:10.123Z,16.60
2022-08-29T02:51:37.600Z,16.48
2022-08-29T02:54:05.771Z,16.60
2022-08-29T02:56:33.312Z,16.52
2022-08-29T02:59:01.187Z,16.25
2022-08-29T03:01:28.803Z,16.02
2022-08-29T03:03:58.199Z,16.27
2022-08-29T03:06:25.729Z,16.18
2022-08-29T03:08:54.144Z,16.09
2022-08-29T03:11:23.265Z,16.42
2022-08-29T03:13:50.764Z,16.63
2022-08-29T03:16:18.924Z,16.65
2022-08-29T03:18:46.485Z,16.69
2022-08-29T03:21:20.663Z,17.26
2022-08-29T03:23:49.451Z,16.94
2022-08-29T03:26:17.366Z,16.66
2022-08-29T03:28:45.280Z,16.90
2022-08-29T03:31:12.910Z,16.58
2022-08-29T03:33:40.509Z,16.68
2022-08-29T03:36:14.363Z,16.58
2022-08-29T03:38:44.192Z,16.52
2022-08-29T03:41:12.283Z,16.37
2022-08-29T03:43:39.848Z,16.77
2022-08-29T03:46:07.511Z,16.42
2022-08-29T03:48:35.070Z,16.39
2022-08-29T03:51:02.851Z,16.98
2022-08-29T03:53:30.827Z,17.30
2022-08-29T03:55:59.720Z,17.32
2022-08-29T03:58:27.227Z,16.74
2022-08-29T04:00:54.785Z,16.48
2022-08-29T04:03:26.581Z,16.90
2022-08-29T04:05:59.497Z,17.01
2022-08-29T04:08:27.063Z,16.96
2022-08-29T04:10:54.592Z,16.84
2022-08-29T04:13:23.431Z,15.85
2022-08-29T04:15:51.099Z,15.51
2022-08-29T04:18:21.720Z,15.44
2022-08-29T04:20:50.121Z,15.48
2022-08-29T04:23:17.796Z,15.41
2022-08-29T04:25:45.554Z,15.45
2022-08-29T04:28:14.757Z,15.82
2022-08-29T04:30:51.662Z,15.78
2022-08-29T04:33:22.855Z,15.70
2022-08-29T04:35:51.153Z,15.95
2022-08-29T04:38:18.884Z,15.67
2022-08-29T04:40:46.428Z,15.55
2022-08-29T04:43:14.478Z,15.68
2022-08-29T04:45:42.013Z,15.89
2022-08-29T04:48:11.090Z,16.52
2022-08-29T04:50:39.035Z,16.52
2022-08-29T04:53:06.548Z,16.51
2022-08-29T04:55:34.052Z,16.93
2022-08-29T04:58:01.670Z,17.56
2022-08-29T05:00:31.581Z,17.37
2022-08-29T05:02:59.597Z,17.70
2022-08-29T05:05:28.761Z,18.09
2022-08-29T05:07:56.272Z,18.48
2022-08-29T05:10:24.045Z,18.37
2022-08-29T05:12:51.539Z,18.62
2022-08-29T05:15:19.846Z,18.85
2022-08-29T05:17:47.379Z,18.98
2022-08-29T05:20:14.891Z,19.47
2022-08-29T05:22:44.031Z,19.92
2022-08-29T05:25:17.907Z,20.26
2022-08-29T05:27:46.186Z,20.31
2022-08-29T05:30:13.857Z,20.10
2022-08-29T05:32:41.366Z,20.16
2022-08-29T05:35:09.461Z,20.48
2022-08-29T05:37:38.685Z,20.66
2022-08-29T05:40:08.790Z,20.82
2022-08-29T05:42:36.354Z,21.46
2022-08-29T05:45:05.046Z,21.46
2022-08-29T05:47:33.692Z,21.36
2022-08-29T05:50:01.779Z,20.94
2022-08-29T05:52:30.256Z,20.15
2022-08-29T05:54:57.763Z,20.34
2022-08-29T05:57:27.496Z,20.39
2022-08-29T05:59:55.411Z,20.64
2022-08-29T06:02:25.031Z,20.62
2022-08-29T06:04:53.279Z,20.99
2022-08-29T06:07:21.186Z,21.50
2022-08-29T06:09:52.803Z,21.67
2022-08-29T06:12:20.608Z,22.04
2022-08-29T06:14:53.087Z,22.76
2022-08-29T06:17:20.839Z,23.19
2022-08-29T06:19:51.538Z,22.95
2022-08-29T06:22:19.735Z,23.79
2022-08-29T06:24:47.389Z,24.50
2022-08-29T06:27:16.324Z,24.72
2022-08-29T06:29:44.066Z,24.97
2022-08-29T06:32:12.977Z,24.20
2022-08-29T06:34:40.565Z,23.44
2022-08-29T06:37:08.093Z,25.08
2022-08-29T06:39:35.738Z,23.85
2022-08-29T06:42:03.260Z,23.11
2022-08-29T06:44:31.233Z,22.68
2022-08-29T06:46:59.809Z,23.45
2022-08-29T06:49:29.608Z,24.15
2022-08-29T06:51:58.597Z,24.90
2022-08-29T06:54:28.831Z,25.16
2022-08-29T06:56:57.034Z,24.94
2022-08-29T06:59:25.084Z,24.79
2022-08-29T07:01:52.735Z,25.65
2022-08-29T07:04:20.983Z,26.12
2022-08-29T07:06:50.340Z,26.50
2022-08-29T07:09:18.004Z,27.56
2022-08-29T07:11:45.513Z,27.48
2022-08-29T07:14:13.948Z,26.92
2022-08-29T07:16:42.148Z,26.81
2022-08-29T07:19:11.122Z,26.77
2022-08-29T07:21:39.797Z,26.89
2022-08-29T07:24:09.492Z,27.67
2022-08-29T07:26:41.421Z,28.92
2022-08-29T07:29:11.701Z,29.42
2022-08-29T07:31:39.959Z,30.69
2022-08-29T07:34:07.731Z,30.86
2022-08-29T07:36:35.855Z,31.74
2022-08-29T07:39:06.636Z,32.30
2022-08-29T07:41:35.485Z,33.84
2022-08-29T07:44:03.189Z,33.89
2022-08-29T07:46:31.485Z,34.51
2022-08-29T07:48:59.716Z,34.40
2022-08-29T07:51:27.935Z,34.90
2022-08-29T07:53:56.824Z,34.82
2022-08-29T07:56:26.657Z,35.76
2022-08-29T07:58:56.830Z,35.83
2022-08-29T08:01:25.613Z,35.54
2022-08-29T08:03:54.124Z,36.46
2022-08-29T08:06:23.244Z,36.29
2022-08-29T08:08:51.883Z,37.03
2022-08-29T08:11:20.702Z,37.70
2022-08-29T08:13:48.460Z,38.84
2022-08-29T08:16:20.368Z,39.66
2022-08-29T08:18:49.021Z,38.71
2022-08-29T08:21:16.575Z,38.84
2022-08-29T08:23:44.815Z,38.28
2022-08-29T08:26:13.804Z,38.43
2022-08-29T08:28:42.445Z,37.13
2022-08-29T08:31:11.819Z,36.60
2022-08-29T08:33:45.084Z,37.06
2022-08-29T08:36:17.667Z,37.34
2022-08-29T08:38:45.446Z,37.35
2022-08-29T08:41:27.061Z,37.90
2022-08-29T08:43:57.808Z,37.00
2022-08-29T08:46:31.609Z,35.92
2022-08-29T08:49:02.184Z,35.26
2022-08-29T08:51:34.856Z,36.03
2022-08-29T08:54:08.293Z,37.49
2022-08-29T08:56:43.049Z,38.08
2022-08-29T08:59:16.286Z,38.62
2022-08-29T09:01:48.933Z,37.74
2022-08-29T09:04:37.999Z,36.97
2022-08-29T09:07:19.714Z,36.60
2022-08-29T09:10:07.920Z,36.17
2022-08-29T09:12:49.890Z,36.95
2022-08-29T09:15:22.236Z,37.02
2022-08-29T09:17:52.652Z,37.38
2022-08-29T09:20:25.972Z,36.65
2022-08-29T09:23:02.719Z,36.40
2022-08-29T09:25:35.895Z,37.42
2022-08-29T09:28:07.302Z,37.34
2022-08-29T09:30:36.669Z,37.93
2022-08-29T09:33:08.674Z,37.99
2022-08-29T09:35:41.264Z,38.27
2022-08-29T09:38:10.629Z,36.42
2022-08-29T09:40:46.118Z,35.87
2022-08-29T09:43:19.665Z,36.54
2022-08-29T09:46:08.495Z,35.44
2022-08-29T09:48:38.031Z,33.99
2022-08-29T09:51:28.211Z,33.04
2022-08-29T09:54:14.028Z,32.26
2022-08-29T09:56:50.103Z,31.63
2022-08-29T09:59:25.601Z,31.75
2022-08-29T10:02:22.574Z,31.69
2022-08-29T10:04:52.665Z,30.04
2022-08-29T10:07:24.855Z,30.17
2022-08-29T10:09:58.995Z,29.16
2022-08-29T10:12:34.734Z,30.13
2022-08-29T10:15:07.212Z,28.55
2022-08-29T10:17:59.631Z,28.55
2022-08-29T10:20:41.726Z,27.27
2022-08-29T10:23:21.344Z,28.60
2022-08-29T10:25:52.015Z,29.96
2022-08-29T10:28:33.900Z,29.23
2022-08-29T10:31:10.374Z,27.97
2022-08-29T10:33:58.053Z,27.99
2022-08-29T10:36:31.544Z,28.81
2022-08-29T10:39:07.604Z,28.43
2022-08-29T10:41:41.186Z,28.51
2022-08-29T10:44:24.490Z,29.14
2022-08-29T10:47:03.226Z,28.25
2022-08-29T10:49:46.054Z,28.03
2022-08-29T10:52:22.450Z,28.98
2022-08-29T10:55:01.325Z,31.17
2022-08-29T10:57:47.309Z,31.80
2022-08-29T11:00:19.492Z,32.22
2022-08-29T11:02:54.844Z,32.77
2022-08-29T11:05:25.686Z,33.28
2022-08-29T11:08:01.247Z,34.05
2022-08-29T11:10:40.275Z,34.73
2022-08-29T11:13:13.270Z,34.71
2022-08-29T11:15:44.644Z,35.16
2022-08-29T11:18:24.836Z,35.00
2022-08-29T11:20:57.770Z,34.57
2022-08-29T11:23:34.099Z,34.59
2022-08-29T11:26:09.012Z,34.60
2022-08-29T11:28:47.065Z,34.27
2022-08-29T11:31:23.865Z,35.53
2022-08-29T11:34:02.996Z,35.85
2022-08-29T11:36:48.092Z,36.92
2022-08-29T11:39:35.055Z,35.91
2022-08-29T11:42:07.083Z,35.55
2022-08-29T11:44:39.999Z,35.04
2022-08-29T11:47:40.776Z,36.49
2022-08-29T11:50:23.817Z,36.45
2022-08-29T11:52:56.115Z,37.46
2022-08-29T11:55:35.916Z,37.89
2022-08-29T11:58:11.597Z,38.14
2022-08-29T12:00:51.357Z,39.17
2022-08-29T12:03:53.664Z,40.20
2022-08-29T12:06:37.029Z,39.14
2022-08-29T12:09:19.796Z,37.63
2022-08-29T12:12:35.779Z,34.58
2022-08-29T12:15:45.508Z,34.60
2022-08-29T12:18:36.610Z,30.20
2022-08-29T12:21:44.177Z,30.86
2022-08-29T12:24:28.856Z,30.31
2022-08-29T12:26:56.880Z,29.07
2022-08-29T12:29:27.064Z,28.74
2022-08-29T12:32:22.839Z,28.43
2022-08-29T12:35:13.621Z,28.21
2022-08-29T12:37:54.383Z,27.73
2022-08-29T12:40:47.645Z,27.20
2022-08-29T12:43:36.301Z,27.83
2022-08-29T12:46:09.614Z,27.97
2022-08-29T12:48:53.427Z,28.08
2022-08-29T12:51:33.938Z,27.14
2022-08-29T12:54:02.961Z,27.17
2022-08-29T12:56:30.649Z,27.96
2022-08-29T12:59:00.984Z,28.70
2022-08-29T13:01:31.593Z,30.00
2022-08-29T13:04:02.523Z,30.99
2022-08-29T13:06:31.076Z,32.53
2022-08-29T13:08:58.981Z,33.01
2022-08-29T13:11:30.940Z,32.64
2022-08-29T13:14:07.826Z,33.11
2022-08-29T13:16:35.390Z,33.62
2022-08-29T13:19:11.640Z,33.96
2022-08-29T13:21:39.517Z,35.25
2022-08-29T13:24:13.438Z,36.08
2022-08-29T13:27:04.203Z,36.16
2022-08-29T13:29:37.944Z,36.60
2022-08-29T13:32:27.074Z,35.99
2022-08-29T13:35:06.301Z,34.60
2022-08-29T13:37:36.015Z,34.05
2022-08-29T13:40:29.455Z,33.70
2022-08-29T13:43:00.175Z,33.88
2022-08-29T13:45:28.198Z,34.50
2022-08-29T13:48:04.084Z,34.89
2022-08-29T13:50:32.219Z,34.39
2022-08-29T13:53:00.140Z,33.84
2022-08-29T13:55:27.660Z,33.59
2022-08-29T13:57:56.416Z,33.47
2022-08-29T14:00:35.075Z,33.90
2022-08-29T14:03:06.518Z,33.67
2022-08-29T14:05:35.095Z,34.02
2022-08-29T14:08:03.093Z,34.89
2022-08-29T14:10:30.597Z,34.96
2022-08-29T14:12:58.100Z,34.60
2022-08-29T14:15:26.928Z,34.32
2022-08-29T14:17:54.602Z,33.64
2022-08-29T14:20:22.757Z,33.37
2022-08-29T14:22:50.301Z,33.91
2022-08-29T14:25:20.285Z,34.52
2022-08-29T14:27:48.785Z,33.08
2022-08-29T14:30:20.768Z,32.42
2022-08-29T14:32:49.617Z,31.30
2022-08-29T14:35:27.422Z,30.04
2022-08-29T14:38:00.352Z,28.65
2022-08-29T14:40:28.791Z,27.91
2022-08-29T14:42:56.785Z,27.15
2022-08-29T14:45:24.279Z,26.83
2022-08-29T14:47:53.231Z,26.31
2022-08-29T14:50:21.065Z,26.74
2022-08-29T14:52:48.589Z,26.92
2022-08-29T14:55:17.796Z,26.83
2022-08-29T14:57:45.286Z,27.58
2022-08-29T15:00:16.861Z,29.37
2022-08-29T15:02:44.365Z,30.31
2022-08-29T15:05:13.768Z,31.05
2022-08-29T15:07:44.238Z,31.44
2022-08-29T15:10:18.139Z,30.93
2022-08-29T15:12:45.969Z,31.09
2022-08-29T15:15:13.642Z,32.00
2022-08-29T15:17:43.483Z,31.82
2022-08-29T15:23:01.770Z,30.88
2022-08-29T15:25:29.587Z,30.79
2022-08-29T15:27:59.384Z,30.80
2022-08-29T15:30:27.409Z,30.47
2022-08-29T15:32:54.991Z,30.53
2022-08-29T15:35:23.941Z,30.23
2022-08-29T15:37:53.520Z,30.41
2022-08-29T15:40:21.089Z,30.72
2022-08-29T15:42:48.701Z,31.07
2022-08-29T15:45:16.368Z,31.55
2022-08-29T15:47:46.132Z,31.79
2022-08-29T15:50:14.558Z,32.10
2022-08-29T15:52:43.520Z,31.89
2022-08-29T15:55:12.617Z,31.63
2022-08-29T15:57:51.754Z,31.55
2022-08-29T16:00:30.564Z,31.83
2022-08-29T16:03:00.388Z,31.79
2022-08-29T16:05:28.450Z,31.92
2022-08-29T16:07:57.335Z,31.89
2022-08-29T16:10:25.003Z,31.62
2022-08-29T16:12:52.671Z,31.81
2022-08-29T16:15:20.219Z,32.05
2022-08-29T16:17:49.746Z,32.27
2022-08-29T16:20:17.350Z,32.30
2022-08-29T16:22:44.864Z,31.63
2022-08-29T16:25:14.963Z,30.51
2022-08-29T16:27:42.469Z,29.40
2022-08-29T16:30:11.444Z,28.80
2022-08-29T16:32:39.098Z,28.69
2022-08-29T16:35:07.876Z,28.45
2022-08-29T16:37:35.555Z,28.71
2022-08-29T16:40:05.198Z,28.83
2022-08-29T16:42:34.184Z,28.52
2022-08-29T16:45:01.690Z,27.96
2022-08-29T16:47:29.204Z,28.08
2022-08-29T16:49:56.727Z,28.12
2022-08-29T16:52:24.237Z,28.13
2022-08-29T16:54:53.710Z,28.21
2022-08-29T16:57:21.825Z,28.47
2022-08-29T16:59:51.003Z,27.69
2022-08-29T17:02:18.651Z,27.67
2022-08-29T17:04:46.851Z,27.44
2022-08-29T17:07:14.364Z,27.25
2022-08-29T17:09:40.921Z,27.34
2022-08-29T17:12:08.000Z,27.21
2022-08-29T17:14:36.402Z,27.37
2022-08-29T17:17:05.699Z,26.73
2022-08-29T17:19:34.074Z,26.47
2022-08-29T17:22:01.691Z,26.77
2022-08-29T17:24:29.228Z,26.97
2022-08-29T17:26:56.947Z,27.09
2022-08-29T17:29:24.447Z,27.01
2022-08-29T17:31:51.959Z,26.90
2022-08-29T17:34:20.997Z,26.67
2022-08-29T17:36:49.654Z,26.48
2022-08-29T17:39:17.321Z,26.29
2022-08-29T17:41:50.469Z,25.92
2022-08-29T17:44:19.036Z,25.75
2022-08-29T17:46:46.631Z,25.61
2022-08-29T17:49:14.140Z,25.42
2022-08-29T17:51:43.073Z,25.22
2022-08-29T17:54:14.693Z,25.08
2022-08-29T17:56:45.010Z,24.88
2022-08-29T17:59:13.076Z,24.69
2022-08-29T18:01:40.989Z,24.48
2022-08-29T18:04:08.575Z,24.22
2022-08-29T18:06:36.089Z,24.01
2022-08-29T18:09:05.494Z,23.85
2022-08-29T18:11:33.126Z,23.71
2022-08-29T18:14:01.056Z,22.83
2022-08-29T18:16:28.645Z,22.47
2022-08-29T18:18:56.230Z,22.97
2022-08-29T18:21:23.740Z,23.22
2022-08-29T18:23:51.224Z,23.25
2022-08-29T18:26:20.195Z,23.36
2022-08-29T18:28:47.711Z,23.28
2022-08-29T18:31:18.341Z,23.31
2022-08-29T18:34:00.086Z,23.38
2022-08-29T18:36:28.412Z,23.36
2022-08-29T18:38:55.928Z,23.33
2022-08-29T18:41:24.947Z,23.22
2022-08-29T18:43:52.526Z,23.18
2022-08-29T18:46:20.551Z,23.29
2022-08-29T18:48:48.083Z,23.37
2022-08-29T18:51:15.768Z,23.38
2022-08-29T18:53:43.638Z,23.27
2022-08-29T18:56:11.501Z,23.03
2022-08-29T18:58:41.168Z,23.06
2022-08-29T19:01:13.518Z,22.93
2022-08-29T19:03:41.610Z,22.87
2022-08-29T19:06:10.255Z,22.79
2022-08-29T19:08:38.363Z,22.49
2022-08-29T19:11:06.716Z,22.13
2022-08-29T19:13:35.988Z,22.07
2022-08-29T19:16:06.792Z,21.93
2022-08-29T19:18:35.334Z,22.11
2022-08-29T19:21:06.344Z,22.01
2022-08-29T19:23:37.438Z,21.98
2022-08-29T19:26:08.091Z,21.90
2022-08-29T19:28:36.362Z,21.83
2022-08-29T19:31:06.495Z,21.75
2022-08-29T19:33:34.997Z,21.70
2022-08-29T19:36:03.868Z,21.66
2022-08-29T19:38:31.537Z,21.52
2022-08-29T19:40:59.257Z,21.45
2022-08-29T19:43:29.999Z,21.26
2022-08-29T19:45:59.166Z,21.17
2022-08-29T19:48:29.484Z,21.05
2022-08-29T19:50:57.680Z,20.95
2022-08-29T19:53:26.893Z,20.93
2022-08-29T19:55:55.340Z,20.98
2022-08-29T19:58:31.009Z,20.87
2022-08-29T20:01:00.318Z,20.83
2022-08-29T20:03:29.771Z,20.81
2022-08-29T20:05:59.379Z,20.78
2022-08-29T20:08:27.301Z,20.64
2022-08-29T20:10:56.861Z,20.52
2022-08-29T20:13:24.341Z,20.41
2022-08-29T20:15:53.527Z,19.86
2022-08-29T20:18:22.437Z,19.59
2022-08-29T20:20:51.380Z,20.01
2022-08-29T20:23:18.852Z,19.95
2022-08-29T20:25:47.155Z,19.92
2022-08-29T20:28:15.862Z,20.15
2022-08-29T20:30:44.128Z,20.03
2022-08-29T20:33:12.136Z,19.62
2022-08-29T20:35:57.544Z,19.77
2022-08-29T20:38:27.088Z,19.97
2022-08-29T20:40:54.748Z,20.04
2022-08-29T20:43:22.284Z,19.91
2022-08-29T20:45:49.989Z,19.81
2022-08-29T20:48:18.206Z,19.69
2022-08-29T20:50:45.720Z,19.45
2022-08-29T20:53:26.810Z,19.11
2022-08-29T20:56:01.206Z,19.61
2022-08-29T20:58:30.137Z,19.76
2022-08-29T21:00:57.792Z,19.81
2022-08-29T21:03:42.589Z,19.31
2022-08-29T21:06:10.641Z,19.47
2022-08-29T21:08:39.766Z,19.65
2022-08-29T21:11:09.860Z,19.74
2022-08-29T21:13:43.116Z,19.69
2022-08-29T21:16:10.983Z,18.85
2022-08-29T21:18:38.571Z,18.07
2022-08-29T21:21:06.537Z,18.23
2022-08-29T21:23:34.227Z,18.93
2022-08-29T21:26:02.761Z,19.17
2022-08-29T21:28:32.761Z,18.79
2022-08-29T21:31:04.579Z,18.94
2022-08-29T21:33:33.356Z,19.31
2022-08-29T21:36:01.549Z,19.35
2022-08-29T21:38:29.428Z,19.18
2022-08-29T21:40:58.581Z,19.09
2022-08-29T21:43:26.084Z,19.27
2022-08-29T21:45:54.912Z,19.35
2022-08-29T21:48:22.430Z,19.42
2022-08-29T21:50:55.039Z,19.37
2022-08-29T21:53:22.746Z,19.38
2022-08-29T21:55:50.252Z,19.33
2022-08-29T21:58:17.925Z,19.22
2022-08-29T22:00:45.452Z,19.14
2022-08-29T22:03:14.799Z,18.99
2022-08-29T22:05:44.034Z,19.05
2022-08-29T22:08:13.847Z,19.14
2022-08-29T22:10:42.687Z,19.02
2022-08-29T22:13:10.404Z,18.57
2022-08-29T22:15:55.516Z,18.85
2022-08-29T22:18:24.402Z,18.94
2022-08-29T22:20:55.086Z,18.94
2022-08-29T22:23:24.665Z,18.97
2022-08-29T22:25:52.537Z,18.78
2022-08-29T22:28:20.041Z,18.88
2022-08-29T22:30:48.723Z,18.89
2022-08-29T22:33:16.893Z,18.88
2022-08-29T22:35:46.047Z,18.84
2022-08-29T22:38:13.519Z,18.88
2022-08-29T22:40:41.139Z,18.89
2022-08-29T22:43:08.740Z,18.82
2022-08-29T22:45:36.312Z,18.76
2022-08-29T22:48:04.277Z,18.76
2022-08-29T22:50:31.761Z,18.63
2022-08-29T22:53:01.942Z,18.25
2022-08-29T22:57:57.232Z,17.54
2022-08-29T23:00:27.200Z,17.94
2022-08-29T23:02:54.986Z,18.38
2022-08-29T23:05:24.116Z,18.48
2022-08-29T23:07:51.856Z,18.26
2022-08-29T23:10:22.000Z,18.45
2022-08-29T23:12:49.630Z,18.60
2022-08-29T23:15:18.488Z,18.51
2022-08-29T23:17:46.025Z,18.57
2022-08-29T23:20:15.039Z,18.18
2022-08-29T23:22:42.972Z,18.01
2022-08-29T23:25:12.032Z,18.19
2022-08-29T23:27:41.339Z,18.31
2022-08-29T23:30:11.671Z,18.34
2022-08-29T23:32:39.669Z,18.20
2022-08-29T23:35:08.739Z,17.84
2022-08-29T23:37:36.331Z,17.90
2022-08-29T23:40:04.979Z,18.16
2022-08-29T23:42:32.591Z,18.19
2022-08-29T23:45:01.451Z,18.16
2022-08-29T23:47:29.023Z,17.98
2022-08-29T23:49:56.541Z,18.03
2022-08-29T23:52:24.036Z,18.02
2022-08-29T23:54:51.524Z,17.41
2022-08-29T23:57:19.019Z,17.66
